sensor_id;sensor_type;location;lat;lon;timestamp;temperature;humidity
80931;DHT22;70388;42.698;23.324;2023-05-29T00:02:09;16.10;98.40
80931;DHT22;70388;42.698;23.324;2023-05-29T00:04:35;16.00;99.90
80931;DHT22;70388;42.698;23.324;2023-05-29T00:07:02;16.10;99.90
80931;DHT22;70388;42.698;23.324;2023-05-29T00:09:28;16.00;99.90
80931;DHT22;70388;42.698;23.324;2023-05-29T00:11:55;16.00;99.90
80931;DHT22;70388;42.698;23.324;2023-05-29T00:14:21;16.00;99.90
80931;DHT22;70388;42.698;23.324;2023-05-29T00:16:48;16.10;99.90
80931;DHT22;70388;42.698;23.324;2023-05-29T00:19:15;16.00;99.90
80931;DHT22;70388;42.698;23.324;2023-05-29T00:21:45;16.00;99.90
80931;DHT22;70388;42.698;23.324;2023-05-29T00:24:14;15.90;99.90
80931;DHT22;70388;42.698;23.324;2023-05-29T00:26:40;15.90;99.90
80931;DHT22;70388;42.698;23.324;2023-05-29T00:29:06;15.80;99.90
80931;DHT22;70388;42.698;23.324;2023-05-29T00:31:32;15.80;99.90
80931;DHT22;70388;42.698;23.324;2023-05-29T00:33:57;15.80;99.90
80931;DHT22;70388;42.698;23.324;2023-05-29T00:36:24;15.70;99.90
80931;DHT22;70388;42.698;23.324;2023-05-29T00:38:50;15.70;99.90
80931;DHT22;70388;42.698;23.324;2023-05-29T00:41:16;15.80;99.90
80931;DHT22;70388;42.698;23.324;2023-05-29T00:43:42;15.80;99.90
80931;DHT22;70388;42.698;23.324;2023-05-29T00:46:10;15.80;99.90
80931;DHT22;70388;42.698;23.324;2023-05-29T00:48:38;15.80;99.90
80931;DHT22;70388;42.698;23.324;2023-05-29T00:51:04;15.80;99.90
80931;DHT22;70388;42.698;23.324;2023-05-29T00:53:30;15.70;99.90
80931;DHT22;70388;42.698;23.324;2023-05-29T00:55:58;15.60;99.90
80931;DHT22;70388;42.698;23.324;2023-05-29T00:58:24;15.50;99.90
80931;DHT22;70388;42.698;23.324;2023-05-29T01:00:50;15.40;99.90
80931;DHT22;70388;42.698;23.324;2023-05-29T01:03:18;15.40;99.90
80931;DHT22;70388;42.698;23.324;2023-05-29T01:05:44;15.50;99.90
80931;DHT22;70388;42.698;23.324;2023-05-29T01:08:12;15.60;99.90
80931;DHT22;70388;42.698;23.324;2023-05-29T01:10:38;15.50;99.90
80931;DHT22;70388;42.698;23.324;2023-05-29T01:13:11;15.50;99.90
80931;DHT22;70388;42.698;23.324;2023-05-29T01:24:31;15.40;99.90
80931;DHT22;70388;42.698;23.324;2023-05-29T01:27:01;15.30;99.90
80931;DHT22;70388;42.698;23.324;2023-05-29T01:29:30;15.30;99.90
80931;DHT22;70388;42.698;23.324;2023-05-29T01:31:58;15.40;99.90
80931;DHT22;70388;42.698;23.324;2023-05-29T01:34:24;15.60;99.90
80931;DHT22;70388;42.698;23.324;2023-05-29T01:36:50;15.60;99.90
80931;DHT22;70388;42.698;23.324;2023-05-29T01:39:16;15.60;99.90
80931;DHT22;70388;42.698;23.324;2023-05-29T01:41:45;15.60;99.90
80931;DHT22;70388;42.698;23.324;2023-05-29T01:44:12;15.50;99.90
80931;DHT22;70388;42.698;23.324;2023-05-29T01:46:40;15.50;99.90
80931;DHT22;70388;42.698;23.324;2023-05-29T01:49:06;15.50;99.90
80931;DHT22;70388;42.698;23.324;2023-05-29T01:51:32;15.50;99.90
80931;DHT22;70388;42.698;23.324;2023-05-29T01:53:59;15.50;99.90
80931;DHT22;70388;42.698;23.324;2023-05-29T01:59:49;15.40;99.90
80931;DHT22;70388;42.698;23.324;2023-05-29T02:02:15;15.30;99.90
80931;DHT22;70388;42.698;23.324;2023-05-29T02:04:41;15.30;99.90
80931;DHT22;70388;42.698;23.324;2023-05-29T02:07:07;15.30;99.90
80931;DHT22;70388;42.698;23.324;2023-05-29T02:09:34;15.30;99.90
80931;DHT22;70388;42.698;23.324;2023-05-29T02:11:59;15.20;99.90
80931;DHT22;70388;42.698;23.324;2023-05-29T02:14:26;15.20;99.90
80931;DHT22;70388;42.698;23.324;2023-05-29T02:16:51;15.10;99.90
80931;DHT22;70388;42.698;23.324;2023-05-29T02:19:20;15.10;99.90
80931;DHT22;70388;42.698;23.324;2023-05-29T02:21:47;15.20;99.90
80931;DHT22;70388;42.698;23.324;2023-05-29T02:24:13;15.10;99.90
80931;DHT22;70388;42.698;23.324;2023-05-29T02:26:38;15.10;99.90
80931;DHT22;70388;42.698;23.324;2023-05-29T02:29:04;15.10;99.90
80931;DHT22;70388;42.698;23.324;2023-05-29T02:31:33;15.10;99.90
80931;DHT22;70388;42.698;23.324;2023-05-29T02:33:59;15.10;99.90
80931;DHT22;70388;42.698;23.324;2023-05-29T02:36:24;15.20;99.90
80931;DHT22;70388;42.698;23.324;2023-05-29T02:38:50;15.30;99.90
80931;DHT22;70388;42.698;23.324;2023-05-29T02:41:16;15.40;99.90
80931;DHT22;70388;42.698;23.324;2023-05-29T02:43:42;15.30;99.90
80931;DHT22;70388;42.698;23.324;2023-05-29T02:46:07;15.30;99.90
80931;DHT22;70388;42.698;23.324;2023-05-29T02:48:33;15.20;99.90
80931;DHT22;70388;42.698;23.324;2023-05-29T02:50:58;15.20;99.90
80931;DHT22;70388;42.698;23.324;2023-05-29T02:53:24;15.10;99.90
80931;DHT22;70388;42.698;23.324;2023-05-29T02:55:51;15.00;99.90
80931;DHT22;70388;42.698;23.324;2023-05-29T02:58:16;15.00;99.90
80931;DHT22;70388;42.698;23.324;2023-05-29T03:00:42;15.00;99.90
80931;DHT22;70388;42.698;23.324;2023-05-29T03:03:08;15.10;99.90
80931;DHT22;70388;42.698;23.324;2023-05-29T03:05:34;15.10;99.90
80931;DHT22;70388;42.698;23.324;2023-05-29T03:07:59;15.20;99.90
80931;DHT22;70388;42.698;23.324;2023-05-29T03:10:25;15.30;99.90
80931;DHT22;70388;42.698;23.324;2023-05-29T03:12:51;15.40;99.90
80931;DHT22;70388;42.698;23.324;2023-05-29T03:15:17;15.40;99.90
80931;DHT22;70388;42.698;23.324;2023-05-29T03:17:48;15.50;99.90
80931;DHT22;70388;42.698;23.324;2023-05-29T03:20:14;15.50;99.90
80931;DHT22;70388;42.698;23.324;2023-05-29T03:22:41;15.70;99.90
80931;DHT22;70388;42.698;23.324;2023-05-29T03:25:07;15.70;99.90
80931;DHT22;70388;42.698;23.324;2023-05-29T03:27:32;15.80;99.90
80931;DHT22;70388;42.698;23.324;2023-05-29T03:29:59;15.90;99.90
80931;DHT22;70388;42.698;23.324;2023-05-29T03:32:24;15.90;99.90
80931;DHT22;70388;42.698;23.324;2023-05-29T03:34:50;15.80;99.90
80931;DHT22;70388;42.698;23.324;2023-05-29T03:37:16;15.80;99.90
80931;DHT22;70388;42.698;23.324;2023-05-29T03:39:42;15.90;99.90
80931;DHT22;70388;42.698;23.324;2023-05-29T03:42:07;16.00;99.90
80931;DHT22;70388;42.698;23.324;2023-05-29T03:44:33;16.00;99.90
80931;DHT22;70388;42.698;23.324;2023-05-29T03:46:59;15.90;99.90
80931;DHT22;70388;42.698;23.324;2023-05-29T03:49:24;15.90;99.90
80931;DHT22;70388;42.698;23.324;2023-05-29T03:51:50;15.70;99.90
80931;DHT22;70388;42.698;23.324;2023-05-29T03:54:16;15.80;99.90
80931;DHT22;70388;42.698;23.324;2023-05-29T03:56:42;16.00;99.90
80931;DHT22;70388;42.698;23.324;2023-05-29T03:59:08;16.10;99.90
80931;DHT22;70388;42.698;23.324;2023-05-29T04:01:33;16.30;99.90
80931;DHT22;70388;42.698;23.324;2023-05-29T04:04:00;16.40;99.90
80931;DHT22;70388;42.698;23.324;2023-05-29T04:06:26;16.30;99.90
80931;DHT22;70388;42.698;23.324;2023-05-29T04:08:52;16.50;99.90
80931;DHT22;70388;42.698;23.324;2023-05-29T04:11:17;16.60;99.90
80931;DHT22;70388;42.698;23.324;2023-05-29T04:17:07;16.50;99.90
80931;DHT22;70388;42.698;23.324;2023-05-29T04:19:33;16.60;99.90
80931;DHT22;70388;42.698;23.324;2023-05-29T04:21:59;16.80;99.90
80931;DHT22;70388;42.698;23.324;2023-05-29T04:24:24;17.00;99.90
80931;DHT22;70388;42.698;23.324;2023-05-29T04:26:50;17.10;99.90
80931;DHT22;70388;42.698;23.324;2023-05-29T04:29:16;17.10;99.90
80931;DHT22;70388;42.698;23.324;2023-05-29T04:31:42;17.10;99.90
80931;DHT22;70388;42.698;23.324;2023-05-29T04:34:08;17.10;99.90
80931;DHT22;70388;42.698;23.324;2023-05-29T04:36:34;17.20;99.90
80931;DHT22;70388;42.698;23.324;2023-05-29T04:39:05;17.20;99.90
80931;DHT22;70388;42.698;23.324;2023-05-29T04:41:30;17.30;99.90
80931;DHT22;70388;42.698;23.324;2023-05-29T04:43:56;17.30;99.90
80931;DHT22;70388;42.698;23.324;2023-05-29T04:46:23;17.30;99.90
80931;DHT22;70388;42.698;23.324;2023-05-29T04:48:50;17.40;99.90
80931;DHT22;70388;42.698;23.324;2023-05-29T04:51:22;17.50;99.90
80931;DHT22;70388;42.698;23.324;2023-05-29T04:53:49;17.50;99.90
80931;DHT22;70388;42.698;23.324;2023-05-29T04:56:17;17.60;99.90
80931;DHT22;70388;42.698;23.324;2023-05-29T04:58:44;17.50;99.90
80931;DHT22;70388;42.698;23.324;2023-05-29T05:01:10;17.50;99.90
80931;DHT22;70388;42.698;23.324;2023-05-29T05:03:43;17.50;99.90
80931;DHT22;70388;42.698;23.324;2023-05-29T05:06:08;17.50;99.90
80931;DHT22;70388;42.698;23.324;2023-05-29T05:08:34;17.60;99.90
80931;DHT22;70388;42.698;23.324;2023-05-29T05:11:01;17.70;99.90
80931;DHT22;70388;42.698;23.324;2023-05-29T05:13:27;17.70;99.90
80931;DHT22;70388;42.698;23.324;2023-05-29T05:15:53;17.80;99.90
80931;DHT22;70388;42.698;23.324;2023-05-29T05:18:19;17.90;99.90
80931;DHT22;70388;42.698;23.324;2023-05-29T05:20:45;18.00;99.90
80931;DHT22;70388;42.698;23.324;2023-05-29T05:23:11;18.10;99.90
80931;DHT22;70388;42.698;23.324;2023-05-29T05:25:37;18.10;99.90
80931;DHT22;70388;42.698;23.324;2023-05-29T05:28:04;18.20;70.20
80931;DHT22;70388;42.698;23.324;2023-05-29T05:30:30;18.10;65.70
80931;DHT22;70388;42.698;23.324;2023-05-29T05:32:56;18.10;64.00
80931;DHT22;70388;42.698;23.324;2023-05-29T05:35:22;18.20;63.20
80931;DHT22;70388;42.698;23.324;2023-05-29T05:37:48;18.20;62.90
80931;DHT22;70388;42.698;23.324;2023-05-29T05:40:13;18.30;62.70
80931;DHT22;70388;42.698;23.324;2023-05-29T05:42:39;18.20;62.60
80931;DHT22;70388;42.698;23.324;2023-05-29T05:45:05;18.30;62.50
80931;DHT22;70388;42.698;23.324;2023-05-29T05:47:32;18.50;62.30
80931;DHT22;70388;42.698;23.324;2023-05-29T05:49:58;19.00;60.60
80931;DHT22;70388;42.698;23.324;2023-05-29T05:52:24;19.50;58.30
80931;DHT22;70388;42.698;23.324;2023-05-29T05:54:51;19.90;56.30
80931;DHT22;70388;42.698;23.324;2023-05-29T05:57:17;20.20;55.90
80931;DHT22;70388;42.698;23.324;2023-05-29T05:59:43;20.40;55.30
80931;DHT22;70388;42.698;23.324;2023-05-29T06:02:08;20.50;54.70
80931;DHT22;70388;42.698;23.324;2023-05-29T06:04:34;20.70;53.70
80931;DHT22;70388;42.698;23.324;2023-05-29T06:07:00;20.70;53.80
80931;DHT22;70388;42.698;23.324;2023-05-29T06:12:59;20.70;52.90
80931;DHT22;70388;42.698;23.324;2023-05-29T06:15:25;20.70;53.80
80931;DHT22;70388;42.698;23.324;2023-05-29T06:17:51;20.60;53.70
80931;DHT22;70388;42.698;23.324;2023-05-29T06:20:17;20.70;53.30
80931;DHT22;70388;42.698;23.324;2023-05-29T06:22:44;20.70;53.50
80931;DHT22;70388;42.698;23.324;2023-05-29T06:25:18;20.90;53.10
80931;DHT22;70388;42.698;23.324;2023-05-29T06:27:45;21.00;52.30
80931;DHT22;70388;42.698;23.324;2023-05-29T06:30:11;21.10;52.20
80931;DHT22;70388;42.698;23.324;2023-05-29T06:32:37;21.40;51.20
80931;DHT22;70388;42.698;23.324;2023-05-29T06:35:03;21.80;50.40
80931;DHT22;70388;42.698;23.324;2023-05-29T06:37:29;22.30;48.70
80931;DHT22;70388;42.698;23.324;2023-05-29T06:39:54;23.60;45.80
80931;DHT22;70388;42.698;23.324;2023-05-29T06:42:21;25.00;41.70
80931;DHT22;70388;42.698;23.324;2023-05-29T06:44:47;26.80;38.20
80931;DHT22;70388;42.698;23.324;2023-05-29T06:47:12;28.40;35.10
80931;DHT22;70388;42.698;23.324;2023-05-29T06:49:38;29.40;33.20
80931;DHT22;70388;42.698;23.324;2023-05-29T06:52:04;30.30;31.40
80931;DHT22;70388;42.698;23.324;2023-05-29T06:54:29;31.30;30.40
80931;DHT22;70388;42.698;23.324;2023-05-29T06:56:55;32.40;29.10
80931;DHT22;70388;42.698;23.324;2023-05-29T06:59:22;33.10;28.30
80931;DHT22;70388;42.698;23.324;2023-05-29T07:01:48;32.90;27.80
80931;DHT22;70388;42.698;23.324;2023-05-29T07:04:13;31.90;28.80
80931;DHT22;70388;42.698;23.324;2023-05-29T07:10:01;31.00;29.40
80931;DHT22;70388;42.698;23.324;2023-05-29T07:12:27;31.70;28.90
80931;DHT22;70388;42.698;23.324;2023-05-29T07:14:52;32.60;27.90
80931;DHT22;70388;42.698;23.324;2023-05-29T07:17:18;32.20;28.20
80931;DHT22;70388;42.698;23.324;2023-05-29T07:19:44;32.40;28.00
80931;DHT22;70388;42.698;23.324;2023-05-29T07:22:10;32.40;27.90
80931;DHT22;70388;42.698;23.324;2023-05-29T07:24:35;31.50;29.30
80931;DHT22;70388;42.698;23.324;2023-05-29T07:27:01;30.20;30.90
80931;DHT22;70388;42.698;23.324;2023-05-29T07:29:27;29.30;32.70
80931;DHT22;70388;42.698;23.324;2023-05-29T07:31:52;27.60;35.60
80931;DHT22;70388;42.698;23.324;2023-05-29T07:34:18;27.10;37.10
80931;DHT22;70388;42.698;23.324;2023-05-29T07:37:03;26.70;37.20
80931;DHT22;70388;42.698;23.324;2023-05-29T07:39:30;26.60;37.10
80931;DHT22;70388;42.698;23.324;2023-05-29T07:41:55;26.20;37.90
80931;DHT22;70388;42.698;23.324;2023-05-29T07:44:21;26.40;37.70
80931;DHT22;70388;42.698;23.324;2023-05-29T07:46:47;27.30;36.20
80931;DHT22;70388;42.698;23.324;2023-05-29T07:49:13;29.10;33.40
80931;DHT22;70388;42.698;23.324;2023-05-29T07:51:38;29.20;32.20
80931;DHT22;70388;42.698;23.324;2023-05-29T07:54:07;27.80;34.50
80931;DHT22;70388;42.698;23.324;2023-05-29T07:56:32;27.20;36.30
80931;DHT22;70388;42.698;23.324;2023-05-29T07:58:59;28.30;34.30
80931;DHT22;70388;42.698;23.324;2023-05-29T08:01:25;28.10;34.10
80931;DHT22;70388;42.698;23.324;2023-05-29T08:03:52;28.30;34.10
80931;DHT22;70388;42.698;23.324;2023-05-29T08:06:18;30.00;31.10
80931;DHT22;70388;42.698;23.324;2023-05-29T08:08:44;29.30;31.90
80931;DHT22;70388;42.698;23.324;2023-05-29T08:11:10;28.50;33.20
80931;DHT22;70388;42.698;23.324;2023-05-29T08:13:36;27.50;35.10
80931;DHT22;70388;42.698;23.324;2023-05-29T08:16:02;27.20;35.80
80931;DHT22;70388;42.698;23.324;2023-05-29T08:21:50;26.70;36.60
80931;DHT22;70388;42.698;23.324;2023-05-29T08:24:23;26.20;38.10
80931;DHT22;70388;42.698;23.324;2023-05-29T08:26:48;26.40;37.40
80931;DHT22;70388;42.698;23.324;2023-05-29T08:29:14;27.40;35.60
80931;DHT22;70388;42.698;23.324;2023-05-29T08:31:40;29.20;32.50
80931;DHT22;70388;42.698;23.324;2023-05-29T08:34:05;30.70;29.80
80931;DHT22;70388;42.698;23.324;2023-05-29T08:36:32;31.80;28.70
80931;DHT22;70388;42.698;23.324;2023-05-29T08:38:58;31.70;27.80
80931;DHT22;70388;42.698;23.324;2023-05-29T08:41:38;32.50;27.00
80931;DHT22;70388;42.698;23.324;2023-05-29T08:44:06;33.10;26.70
80931;DHT22;70388;42.698;23.324;2023-05-29T08:46:33;31.70;27.70
80931;DHT22;70388;42.698;23.324;2023-05-29T08:49:01;31.00;28.30
80931;DHT22;70388;42.698;23.324;2023-05-29T08:51:31;30.40;28.50
80931;DHT22;70388;42.698;23.324;2023-05-29T08:53:58;29.50;29.60
80931;DHT22;70388;42.698;23.324;2023-05-29T08:56:23;29.30;30.20
80931;DHT22;70388;42.698;23.324;2023-05-29T08:58:49;29.20;30.00
80931;DHT22;70388;42.698;23.324;2023-05-29T09:01:17;29.20;29.90
80931;DHT22;70388;42.698;23.324;2023-05-29T09:03:42;28.90;30.20
80931;DHT22;70388;42.698;23.324;2023-05-29T09:06:08;28.20;31.20
80931;DHT22;70388;42.698;23.324;2023-05-29T09:08:37;27.50;32.10
80931;DHT22;70388;42.698;23.324;2023-05-29T09:11:04;27.30;32.30
80931;DHT22;70388;42.698;23.324;2023-05-29T09:13:30;28.20;31.00
80931;DHT22;70388;42.698;23.324;2023-05-29T09:16:00;29.00;29.70
80931;DHT22;70388;42.698;23.324;2023-05-29T09:18:29;29.50;29.00
80931;DHT22;70388;42.698;23.324;2023-05-29T09:20:56;30.00;28.10
80931;DHT22;70388;42.698;23.324;2023-05-29T09:23:21;29.30;29.10
80931;DHT22;70388;42.698;23.324;2023-05-29T09:25:52;28.40;30.60
80931;DHT22;70388;42.698;23.324;2023-05-29T09:28:19;27.50;31.90
80931;DHT22;70388;42.698;23.324;2023-05-29T09:30:46;26.60;33.80
80931;DHT22;70388;42.698;23.324;2023-05-29T09:33:13;26.20;34.70
80931;DHT22;70388;42.698;23.324;2023-05-29T09:35:46;26.00;36.40
80931;DHT22;70388;42.698;23.324;2023-05-29T09:38:19;25.70;35.90
80931;DHT22;70388;42.698;23.324;2023-05-29T09:40:45;25.30;36.60
80931;DHT22;70388;42.698;23.324;2023-05-29T09:43:16;25.30;37.50
80931;DHT22;70388;42.698;23.324;2023-05-29T09:45:49;26.10;35.70
80931;DHT22;70388;42.698;23.324;2023-05-29T09:48:17;27.20;33.70
80931;DHT22;70388;42.698;23.324;2023-05-29T09:50:44;27.80;31.70
80931;DHT22;70388;42.698;23.324;2023-05-29T09:53:20;27.80;31.60
80931;DHT22;70388;42.698;23.324;2023-05-29T09:55:48;26.90;34.00
80931;DHT22;70388;42.698;23.324;2023-05-29T09:58:14;27.00;33.70
80931;DHT22;70388;42.698;23.324;2023-05-29T10:00:41;27.30;33.60
80931;DHT22;70388;42.698;23.324;2023-05-29T10:03:08;27.40;33.20
80931;DHT22;70388;42.698;23.324;2023-05-29T10:05:34;26.60;35.40
80931;DHT22;70388;42.698;23.324;2023-05-29T10:08:01;25.80;35.80
80931;DHT22;70388;42.698;23.324;2023-05-29T10:10:29;25.50;37.10
80931;DHT22;70388;42.698;23.324;2023-05-29T10:12:56;25.60;38.90
80931;DHT22;70388;42.698;23.324;2023-05-29T10:15:24;25.10;37.00
80931;DHT22;70388;42.698;23.324;2023-05-29T10:18:07;25.30;37.30
80931;DHT22;70388;42.698;23.324;2023-05-29T10:20:37;25.30;37.90
80931;DHT22;70388;42.698;23.324;2023-05-29T10:23:04;25.10;37.80
80931;DHT22;70388;42.698;23.324;2023-05-29T10:25:32;24.80;37.80
80931;DHT22;70388;42.698;23.324;2023-05-29T10:27:59;24.80;37.70
80931;DHT22;70388;42.698;23.324;2023-05-29T10:30:30;24.70;37.60
80931;DHT22;70388;42.698;23.324;2023-05-29T10:38:50;24.70;37.30
80931;DHT22;70388;42.698;23.324;2023-05-29T10:43:55;24.90;36.40
80931;DHT22;70388;42.698;23.324;2023-05-29T10:46:21;25.00;36.70
80931;DHT22;70388;42.698;23.324;2023-05-29T10:49:18;24.80;37.30
80931;DHT22;70388;42.698;23.324;2023-05-29T10:51:44;24.60;37.70
80931;DHT22;70388;42.698;23.324;2023-05-29T10:54:10;24.50;38.00
80931;DHT22;70388;42.698;23.324;2023-05-29T10:56:37;24.20;38.00
80931;DHT22;70388;42.698;23.324;2023-05-29T10:59:02;24.00;38.90
80931;DHT22;70388;42.698;23.324;2023-05-29T11:01:29;23.70;39.00
80931;DHT22;70388;42.698;23.324;2023-05-29T11:06:43;24.30;37.20
80931;DHT22;70388;42.698;23.324;2023-05-29T11:12:23;24.40;37.80
80931;DHT22;70388;42.698;23.324;2023-05-29T11:20:07;24.80;37.20
80931;DHT22;70388;42.698;23.324;2023-05-29T11:25:26;23.20;41.00
80931;DHT22;70388;42.698;23.324;2023-05-29T11:27:52;22.90;41.50
80931;DHT22;70388;42.698;23.324;2023-05-29T11:30:21;23.10;41.60
80931;DHT22;70388;42.698;23.324;2023-05-29T11:32:47;23.50;40.10
80931;DHT22;70388;42.698;23.324;2023-05-29T11:35:14;23.80;40.50
80931;DHT22;70388;42.698;23.324;2023-05-29T11:37:41;23.90;38.60
80931;DHT22;70388;42.698;23.324;2023-05-29T11:40:12;23.90;38.50
80931;DHT22;70388;42.698;23.324;2023-05-29T11:42:47;23.80;38.70
80931;DHT22;70388;42.698;23.324;2023-05-29T11:45:20;24.30;38.70
80931;DHT22;70388;42.698;23.324;2023-05-29T11:47:56;25.10;36.20
80931;DHT22;70388;42.698;23.324;2023-05-29T11:50:27;24.90;35.70
80931;DHT22;70388;42.698;23.324;2023-05-29T11:52:53;24.90;36.20
80931;DHT22;70388;42.698;23.324;2023-05-29T11:55:20;24.50;37.10
80931;DHT22;70388;42.698;23.324;2023-05-29T11:57:47;24.20;37.80
80931;DHT22;70388;42.698;23.324;2023-05-29T12:00:17;23.40;40.10
80931;DHT22;70388;42.698;23.324;2023-05-29T12:02:44;23.40;40.00
80931;DHT22;70388;42.698;23.324;2023-05-29T12:05:14;23.10;40.70
80931;DHT22;70388;42.698;23.324;2023-05-29T12:07:52;22.90;43.10
80931;DHT22;70388;42.698;23.324;2023-05-29T12:10:20;22.80;45.30
80931;DHT22;70388;42.698;23.324;2023-05-29T12:12:51;22.40;47.00
80931;DHT22;70388;42.698;23.324;2023-05-29T12:15:18;22.30;48.20
80931;DHT22;70388;42.698;23.324;2023-05-29T12:17:45;21.70;52.50
80931;DHT22;70388;42.698;23.324;2023-05-29T12:20:12;21.00;66.90
80931;DHT22;70388;42.698;23.324;2023-05-29T12:22:39;20.00;99.90
80931;DHT22;70388;42.698;23.324;2023-05-29T12:25:14;19.60;99.90
80931;DHT22;70388;42.698;23.324;2023-05-29T12:27:45;19.50;99.90
80931;DHT22;70388;42.698;23.324;2023-05-29T12:30:29;19.40;99.90
80931;DHT22;70388;42.698;23.324;2023-05-29T12:32:56;19.10;99.90
80931;DHT22;70388;42.698;23.324;2023-05-29T12:35:26;18.80;99.90
80931;DHT22;70388;42.698;23.324;2023-05-29T12:40:22;18.10;99.90
80931;DHT22;70388;42.698;23.324;2023-05-29T12:42:53;17.80;99.90
80931;DHT22;70388;42.698;23.324;2023-05-29T12:45:19;17.70;99.90
80931;DHT22;70388;42.698;23.324;2023-05-29T12:47:56;17.80;99.90
80931;DHT22;70388;42.698;23.324;2023-05-29T12:50:22;18.00;99.90
80931;DHT22;70388;42.698;23.324;2023-05-29T12:53:01;18.10;99.90
80931;DHT22;70388;42.698;23.324;2023-05-29T12:55:37;18.40;99.90
80931;DHT22;70388;42.698;23.324;2023-05-29T12:58:05;18.60;99.90
80931;DHT22;70388;42.698;23.324;2023-05-29T13:00:32;18.80;99.90
80931;DHT22;70388;42.698;23.324;2023-05-29T13:02:58;19.00;99.90
80931;DHT22;70388;42.698;23.324;2023-05-29T13:05:24;19.30;99.90
80931;DHT22;70388;42.698;23.324;2023-05-29T13:07:50;19.50;99.90
80931;DHT22;70388;42.698;23.324;2023-05-29T13:10:17;19.50;99.90
80931;DHT22;70388;42.698;23.324;2023-05-29T13:12:43;19.60;99.90
80931;DHT22;70388;42.698;23.324;2023-05-29T13:15:10;19.70;99.90
80931;DHT22;70388;42.698;23.324;2023-05-29T13:17:37;19.70;99.90
80931;DHT22;70388;42.698;23.324;2023-05-29T13:20:07;19.70;99.90
80931;DHT22;70388;42.698;23.324;2023-05-29T13:22:33;19.90;99.90
80931;DHT22;70388;42.698;23.324;2023-05-29T13:24:59;20.10;99.90
80931;DHT22;70388;42.698;23.324;2023-05-29T13:27:26;20.30;62.90
80931;DHT22;70388;42.698;23.324;2023-05-29T13:29:52;20.50;60.30
80931;DHT22;70388;42.698;23.324;2023-05-29T13:32:18;20.70;60.20
80931;DHT22;70388;42.698;23.324;2023-05-29T13:34:44;21.00;58.00
80931;DHT22;70388;42.698;23.324;2023-05-29T13:37:10;21.10;56.70
80931;DHT22;70388;42.698;23.324;2023-05-29T13:39:35;21.30;57.80
80931;DHT22;70388;42.698;23.324;2023-05-29T13:42:01;21.40;54.60
80931;DHT22;70388;42.698;23.324;2023-05-29T13:44:27;21.40;55.10
80931;DHT22;70388;42.698;23.324;2023-05-29T13:46:52;21.30;55.10
80931;DHT22;70388;42.698;23.324;2023-05-29T13:49:19;21.20;53.90
80931;DHT22;70388;42.698;23.324;2023-05-29T13:51:44;21.20;53.60
80931;DHT22;70388;42.698;23.324;2023-05-29T13:54:12;21.30;52.90
80931;DHT22;70388;42.698;23.324;2023-05-29T13:56:38;21.70;52.10
80931;DHT22;70388;42.698;23.324;2023-05-29T13:59:03;21.80;51.50
80931;DHT22;70388;42.698;23.324;2023-05-29T14:01:32;22.10;49.50
80931;DHT22;70388;42.698;23.324;2023-05-29T14:03:59;22.20;47.80
80931;DHT22;70388;42.698;23.324;2023-05-29T14:06:25;22.30;48.00
80931;DHT22;70388;42.698;23.324;2023-05-29T14:08:51;22.00;49.20
80931;DHT22;70388;42.698;23.324;2023-05-29T14:11:17;21.80;49.40
80931;DHT22;70388;42.698;23.324;2023-05-29T14:13:42;21.70;50.50
80931;DHT22;70388;42.698;23.324;2023-05-29T14:16:08;21.60;51.30
80931;DHT22;70388;42.698;23.324;2023-05-29T14:18:34;21.50;52.00
80931;DHT22;70388;42.698;23.324;2023-05-29T14:20:59;21.50;51.70
80931;DHT22;70388;42.698;23.324;2023-05-29T14:23:25;21.50;51.40
80931;DHT22;70388;42.698;23.324;2023-05-29T14:25:51;21.40;51.90
80931;DHT22;70388;42.698;23.324;2023-05-29T14:28:17;21.30;51.30
80931;DHT22;70388;42.698;23.324;2023-05-29T14:30:43;21.30;50.80
80931;DHT22;70388;42.698;23.324;2023-05-29T14:33:08;21.20;51.20
80931;DHT22;70388;42.698;23.324;2023-05-29T14:35:34;21.20;51.70
80931;DHT22;70388;42.698;23.324;2023-05-29T14:38:00;21.30;51.20
80931;DHT22;70388;42.698;23.324;2023-05-29T14:40:26;21.30;51.50
80931;DHT22;70388;42.698;23.324;2023-05-29T14:42:51;21.20;51.00
80931;DHT22;70388;42.698;23.324;2023-05-29T14:45:17;21.30;50.80
80931;DHT22;70388;42.698;23.324;2023-05-29T14:47:43;21.20;51.40
80931;DHT22;70388;42.698;23.324;2023-05-29T14:50:09;21.30;50.90
80931;DHT22;70388;42.698;23.324;2023-05-29T14:52:35;21.40;50.80
80931;DHT22;70388;42.698;23.324;2023-05-29T14:55:06;21.70;50.40
80931;DHT22;70388;42.698;23.324;2023-05-29T14:57:32;21.80;49.60
80931;DHT22;70388;42.698;23.324;2023-05-29T15:00:00;21.80;50.00
80931;DHT22;70388;42.698;23.324;2023-05-29T15:02:26;21.90;50.50
80931;DHT22;70388;42.698;23.324;2023-05-29T15:04:51;21.80;50.10
80931;DHT22;70388;42.698;23.324;2023-05-29T15:07:17;21.80;49.00
80931;DHT22;70388;42.698;23.324;2023-05-29T15:09:43;21.80;49.30
80931;DHT22;70388;42.698;23.324;2023-05-29T15:12:09;21.50;49.80
80931;DHT22;70388;42.698;23.324;2023-05-29T15:14:35;21.60;49.70
80931;DHT22;70388;42.698;23.324;2023-05-29T15:17:01;21.60;49.40
80931;DHT22;70388;42.698;23.324;2023-05-29T15:19:27;21.60;49.50
80931;DHT22;70388;42.698;23.324;2023-05-29T15:21:53;21.40;49.20
80931;DHT22;70388;42.698;23.324;2023-05-29T15:24:18;21.00;49.40
80931;DHT22;70388;42.698;23.324;2023-05-29T15:26:44;21.00;49.80
80931;DHT22;70388;42.698;23.324;2023-05-29T15:29:10;21.00;50.80
80931;DHT22;70388;42.698;23.324;2023-05-29T15:31:36;21.10;50.20
80931;DHT22;70388;42.698;23.324;2023-05-29T15:34:02;20.90;50.50
80931;DHT22;70388;42.698;23.324;2023-05-29T15:36:28;20.80;51.30
80931;DHT22;70388;42.698;23.324;2023-05-29T15:38:54;20.70;51.10
80931;DHT22;70388;42.698;23.324;2023-05-29T15:41:20;20.50;51.90
80931;DHT22;70388;42.698;23.324;2023-05-29T15:43:45;20.60;51.90
80931;DHT22;70388;42.698;23.324;2023-05-29T15:46:11;20.80;52.00
80931;DHT22;70388;42.698;23.324;2023-05-29T15:48:37;21.00;50.80
80931;DHT22;70388;42.698;23.324;2023-05-29T15:51:02;21.10;51.00
80931;DHT22;70388;42.698;23.324;2023-05-29T15:53:28;21.20;50.60
80931;DHT22;70388;42.698;23.324;2023-05-29T15:55:54;21.20;50.40
80931;DHT22;70388;42.698;23.324;2023-05-29T15:58:20;21.30;51.10
80931;DHT22;70388;42.698;23.324;2023-05-29T16:00:46;21.20;51.20
80931;DHT22;70388;42.698;23.324;2023-05-29T16:03:11;21.20;50.80
80931;DHT22;70388;42.698;23.324;2023-05-29T16:05:37;21.00;51.80